Time;durP1;ratioP1;P1;durP2;ratioP2;P2;SDS_P1;SDS_P2;PMS_P1;PMS_P2;Temp;Humidity;BMP_temperature;BMP_pressure;BME280_temperature;BME280_humidity;BME280_pressure;Samples;Min_cycle;Max_cycle;Signal;HPM_P1;HPM_P2
2022/12/16 00:00:32;;;;;;;41.73;23.30;;;;;;;;;;4955808;28;20402;-43
2022/12/16 00:03:00;;;;;;;43.67;23.00;;;;;;;;;;4956073;29;20908;-42
2022/12/16 00:05:26;;;;;;;46.88;25.10;;;;;;;;;;4959990;28;20765;-43
2022/12/16 00:07:52;;;;;;;38.05;21.55;;;;;;;;;;4961400;28;20184;-43
2022/12/16 00:10:18;;;;;;;40.97;23.67;;;;;;;;;;4956099;28;20186;-43
2022/12/16 00:12:44;;;;;;;37.33;19.67;;;;;;;;;;4955477;29;20466;-43
2022/12/16 00:15:10;;;;;;;45.13;20.13;;;;;;;;;;4955584;29;20414;-44
2022/12/16 00:17:36;;;;;;;41.38;21.02;;;;;;;;;;4958697;28;20456;-43
2022/12/16 00:20:03;;;;;;;44.93;21.67;;;;;;;;;;4955262;28;20210;-44
2022/12/16 00:22:29;;;;;;;44.08;22.30;;;;;;;;;;4955909;29;20477;-43
2022/12/16 00:24:54;;;;;;;40.00;20.90;;;;;;;;;;4954991;29;20186;-43
2022/12/16 00:27:20;;;;;;;40.20;20.50;;;;;;;;;;4955229;28;20493;-43
2022/12/16 00:29:46;;;;;;;40.17;20.70;;;;;;;;;;4955132;29;20418;-44
2022/12/16 00:32:12;;;;;;;44.00;22.13;;;;;;;;;;4955276;29;20974;-43
2022/12/16 00:34:38;;;;;;;34.00;20.15;;;;;;;;;;4954003;28;20210;-43
2022/12/16 00:37:04;;;;;;;38.40;18.57;;;;;;;;;;4958321;28;20170;-43
2022/12/16 00:39:30;;;;;;;40.53;19.63;;;;;;;;;;4959296;28;20462;-43
2022/12/16 00:41:56;;;;;;;32.70;19.50;;;;;;;;;;4955249;29;20418;-43
2022/12/16 00:44:22;;;;;;;30.60;16.43;;;;;;;;;;4954856;29;20407;-43
2022/12/16 00:46:48;;;;;;;34.92;21.48;;;;;;;;;;4958960;28;20419;-43
2022/12/16 00:49:14;;;;;;;37.67;21.02;;;;;;;;;;4960733;28;20534;-43
2022/12/16 00:51:40;;;;;;;38.07;18.43;;;;;;;;;;4962015;28;20174;-44
2022/12/16 00:54:06;;;;;;;40.35;21.08;;;;;;;;;;4954720;29;20783;-44
2022/12/16 00:56:32;;;;;;;47.50;22.37;;;;;;;;;;4957221;28;20502;-43
2022/12/16 00:58:58;;;;;;;39.42;20.65;;;;;;;;;;4954969;28;20460;-43
2022/12/16 01:01:24;;;;;;;40.03;22.13;;;;;;;;;;4954655;29;20225;-43
2022/12/16 01:03:50;;;;;;;32.03;18.97;;;;;;;;;;4960271;28;20438;-43
2022/12/16 01:06:17;;;;;;;25.37;17.03;;;;;;;;;;4954097;29;20410;-42
2022/12/16 01:08:47;;;;;;;33.42;20.40;;;;;;;;;;4955634;28;20456;-42
2022/12/16 01:11:13;;;;;;;33.70;18.08;;;;;;;;;;4954650;28;20181;-42
2022/12/16 01:13:39;;;;;;;40.85;20.10;;;;;;;;;;4954378;28;20267;-42
2022/12/16 01:16:05;;;;;;;36.00;20.67;;;;;;;;;;4955785;28;20182;-43
2022/12/16 01:18:31;;;;;;;38.78;19.90;;;;;;;;;;4958396;28;20460;-43
2022/12/16 01:21:02;;;;;;;25.30;15.50;;;;;;;;;;4954044;28;20540;-44
2022/12/16 01:23:27;;;;;;;36.20;18.95;;;;;;;;;;4954257;29;20437;-43
2022/12/16 01:25:57;;;;;;;39.10;21.43;;;;;;;;;;4951538;28;20183;-43
2022/12/16 01:28:23;;;;;;;35.80;18.88;;;;;;;;;;4954180;28;20421;-42
2022/12/16 01:30:49;;;;;;;38.23;18.10;;;;;;;;;;4953983;28;20190;-44
2022/12/16 01:33:16;;;;;;;30.93;18.30;;;;;;;;;;4954135;28;20445;-43
2022/12/16 01:35:42;;;;;;;27.38;18.55;;;;;;;;;;4953786;28;20406;-43
2022/12/16 01:38:08;;;;;;;32.30;20.20;;;;;;;;;;4954128;29;20181;-43
2022/12/16 01:40:34;;;;;;;29.50;18.43;;;;;;;;;;4956390;28;20410;-43
2022/12/16 01:43:00;;;;;;;32.17;17.93;;;;;;;;;;4953840;29;20516;-44
2022/12/16 01:45:35;;;;;;;39.13;19.38;;;;;;;;;;4956294;28;20956;-43
2022/12/16 01:48:06;;;;;;;33.40;18.80;;;;;;;;;;4953567;29;20178;-43
2022/12/16 01:50:32;;;;;;;38.35;18.77;;;;;;;;;;4953824;29;20648;-42
2022/12/16 01:53:00;;;;;;;33.17;16.90;;;;;;;;;;4998927;23;20221;-40
2022/12/16 01:55:40;;;;;;;32.25;16.20;;;;;;;;;;4995314;28;20189;-40
2022/12/16 01:58:08;;;;;;;34.13;19.92;;;;;;;;;;4984732;28;20180;-40
2022/12/16 02:00:35;;;;;;;27.00;16.95;;;;;;;;;;4992237;28;20169;-40
2022/12/16 02:03:01;;;;;;;26.95;17.92;;;;;;;;;;4993863;28;20200;-41
2022/12/16 02:05:28;;;;;;;30.77;15.80;;;;;;;;;;5009946;28;20179;-41
2022/12/16 02:08:01;;;;;;;31.35;18.38;;;;;;;;;;5001254;28;20180;-40
2022/12/16 02:10:43;;;;;;;27.75;15.52;;;;;;;;;;5003324;28;20281;-42
2022/12/16 02:13:18;;;;;;;28.30;18.98;;;;;;;;;;4992267;28;20231;-40
2022/12/16 02:15:53;;;;;;;29.15;15.95;;;;;;;;;;4996212;28;20180;-41
2022/12/16 02:18:29;;;;;;;34.95;16.80;;;;;;;;;;5003856;28;20269;-41
2022/12/16 02:21:12;;;;;;;26.00;16.90;;;;;;;;;;4995651;28;20191;-40
2022/12/16 02:23:41;;;;;;;26.45;17.58;;;;;;;;;;4999630;28;20196;-40
2022/12/16 02:26:25;;;;;;;39.50;17.00;;;;;;;;;;5001841;28;20160;-41
2022/12/16 02:29:01;;;;;;;28.60;16.05;;;;;;;;;;5001046;28;20669;-41
2022/12/16 02:31:40;;;;;;;27.98;15.73;;;;;;;;;;4999670;28;20569;-40
2022/12/16 02:34:22;;;;;;;33.00;18.90;;;;;;;;;;5003342;28;20290;-41
2022/12/16 02:36:48;;;;;;;32.13;14.48;;;;;;;;;;4999153;28;20184;-41
2022/12/16 02:39:19;;;;;;;29.53;14.67;;;;;;;;;;5000580;28;20263;-40
2022/12/16 02:41:51;;;;;;;19.63;13.40;;;;;;;;;;5003820;28;20495;-40
2022/12/16 02:44:19;;;;;;;35.08;19.77;;;;;;;;;;5002690;28;20259;-40
2022/12/16 02:46:55;;;;;;;31.75;15.93;;;;;;;;;;5005913;28;20275;-40
2022/12/16 02:49:21;;;;;;;25.90;16.23;;;;;;;;;;5008288;28;20652;-40
2022/12/16 02:51:47;;;;;;;22.80;14.90;;;;;;;;;;5003577;28;20185;-41
2022/12/16 02:54:14;;;;;;;27.42;16.83;;;;;;;;;;5004641;28;21016;-40
2022/12/16 02:56:51;;;;;;;27.40;15.07;;;;;;;;;;5005625;28;20664;-40
2022/12/16 02:59:22;;;;;;;26.05;16.13;;;;;;;;;;4998603;28;20224;-40
2022/12/16 03:01:53;;;;;;;21.77;14.93;;;;;;;;;;5005909;28;20175;-41
2022/12/16 03:04:21;;;;;;;18.50;13.40;;;;;;;;;;5003996;28;20216;-40
2022/12/16 03:06:48;;;;;;;25.67;14.25;;;;;;;;;;5005938;28;20594;-40
2022/12/16 03:09:16;;;;;;;34.15;17.08;;;;;;;;;;5003706;28;20180;-40
2022/12/16 03:11:42;;;;;;;22.80;14.25;;;;;;;;;;4999753;28;20173;-40
2022/12/16 03:14:10;;;;;;;31.15;17.58;;;;;;;;;;5007102;28;20208;-41
2022/12/16 03:16:36;;;;;;;21.15;15.43;;;;;;;;;;5004577;28;20164;-40
2022/12/16 03:19:03;;;;;;;32.55;15.40;;;;;;;;;;5007152;28;20197;-40
2022/12/16 03:21:31;;;;;;;26.23;16.35;;;;;;;;;;5006402;28;20214;-41
2022/12/16 03:23:59;;;;;;;28.95;16.73;;;;;;;;;;5003600;28;20247;-41
2022/12/16 03:26:27;;;;;;;26.27;17.25;;;;;;;;;;5002767;28;20164;-41
2022/12/16 03:28:57;;;;;;;25.90;14.57;;;;;;;;;;5004326;28;20183;-40
2022/12/16 03:31:41;;;;;;;25.77;16.42;;;;;;;;;;5005341;28;20187;-40
2022/12/16 03:34:11;;;;;;;33.63;18.63;;;;;;;;;;4996465;28;20680;-41
2022/12/16 03:36:38;;;;;;;27.55;14.98;;;;;;;;;;5000811;28;20203;-40
2022/12/16 03:39:06;;;;;;;32.65;16.88;;;;;;;;;;5003921;28;20631;-40
2022/12/16 03:41:33;;;;;;;27.90;16.23;;;;;;;;;;5006899;28;20210;-42
2022/12/16 03:43:59;;;;;;;34.00;17.23;;;;;;;;;;5006425;28;20620;-40
2022/12/16 03:46:26;;;;;;;39.97;17.17;;;;;;;;;;5008659;28;20207;-41
2022/12/16 03:48:52;;;;;;;25.05;17.50;;;;;;;;;;5004119;28;20719;-41
2022/12/16 03:51:19;;;;;;;32.92;16.63;;;;;;;;;;5003293;28;20279;-40
2022/12/16 03:53:45;;;;;;;27.80;15.60;;;;;;;;;;4997653;28;20582;-41
2022/12/16 03:56:11;;;;;;;33.50;18.15;;;;;;;;;;5005837;28;20226;-42
2022/12/16 03:58:41;;;;;;;32.10;18.50;;;;;;;;;;5004032;28;20194;-41
2022/12/16 04:01:08;;;;;;;29.45;18.50;;;;;;;;;;5006338;28;20169;-40
2022/12/16 04:03:34;;;;;;;30.45;16.88;;;;;;;;;;4998941;28;20196;-41
2022/12/16 04:06:00;;;;;;;27.10;14.85;;;;;;;;;;5006166;28;20176;-41
2022/12/16 04:08:26;;;;;;;31.17;16.95;;;;;;;;;;5006084;28;20187;-40
2022/12/16 04:24:35;;;;;;;24.45;14.48;;;;;;;;;;5003389;28;20190;-40
